California Pines, California
Current Conditions -  °F | °C
As of 6:55 PM on Saturday 20 Dec 2014 (Local Time) from KAAT Reporting Station
Overcast Overcast  
Wind Chill: 38°   Ceiling: 2100
Heat Index: 42°   Visibility: 10mi
Dew Point: 38°   Wind: 7mph
Humidity: 85%   Direction: 200°SSW
Pressure: 30.09"   Gusts: NA
Location:  41.4836°N, 120.55°W
Report Text: KAAT 210255Z AUTO 20006KT 10SM BKN021 OVC027 06/03 A3009 RMK AO2 RAE54 SLP191 P0002 60003 T00560033 53012
Loading
Personal Weather Stations






























Interactive Weather Map New forecast layout! Learn more

10-Day Weather Forecast

Advertisements
Track Severe Weather on mobile